createdAt,value
2018-03-23T00:00:11.160Z,20.11
2018-03-23T00:00:42.795Z,20.13
2018-03-23T00:01:14.422Z,20.11
2018-03-23T00:01:46.057Z,20.12
2018-03-23T00:02:17.682Z,20.12
2018-03-23T00:02:49.310Z,20.13
2018-03-23T00:03:20.938Z,20.14
2018-03-23T00:03:52.577Z,20.13
2018-03-23T00:04:24.206Z,20.08
2018-03-23T00:04:55.878Z,20.13
2018-03-23T00:05:27.507Z,20.12
2018-03-23T00:05:59.135Z,20.15
2018-03-23T00:06:30.843Z,20.15
2018-03-23T00:07:02.475Z,20.17
2018-03-23T00:07:34.098Z,20.17
2018-03-23T00:08:05.726Z,20.16
2018-03-23T00:08:37.356Z,20.16
2018-03-23T00:09:08.986Z,20.12
2018-03-23T00:09:40.610Z,20.12
2018-03-23T00:10:12.235Z,20.12
2018-03-23T00:10:43.863Z,20.13
2018-03-23T00:11:15.485Z,20.14
2018-03-23T00:11:47.115Z,20.13
2018-03-23T00:12:18.798Z,20.15
2018-03-23T00:12:50.421Z,20.14
2018-03-23T00:13:22.042Z,20.13
2018-03-23T00:13:53.666Z,20.15
2018-03-23T00:14:25.290Z,20.13
2018-03-23T00:14:56.914Z,20.14
2018-03-23T00:15:28.537Z,20.16
2018-03-23T00:16:00.166Z,20.17
2018-03-23T00:16:31.790Z,20.15
2018-03-23T00:17:03.414Z,20.19
2018-03-23T00:17:35.094Z,20.21
2018-03-23T00:18:06.722Z,20.14
2018-03-23T00:18:38.351Z,20.10
2018-03-23T00:19:09.979Z,20.11
2018-03-23T00:19:41.631Z,20.11
2018-03-23T00:20:13.258Z,20.16
2018-03-23T00:20:44.882Z,20.20
2018-03-23T00:21:16.511Z,20.17
2018-03-23T00:21:48.134Z,20.15
2018-03-23T00:22:19.754Z,20.19
2018-03-23T00:22:51.435Z,20.14
2018-03-23T00:23:23.058Z,20.15
2018-03-23T00:23:54.682Z,20.13
2018-03-23T00:24:26.306Z,20.14
2018-03-23T00:24:57.935Z,20.14
2018-03-23T00:25:29.561Z,20.18
2018-03-23T00:26:01.192Z,20.23
2018-03-23T00:26:32.823Z,20.23
2018-03-23T00:27:04.446Z,20.26
2018-03-23T00:27:36.075Z,20.29
2018-03-23T00:28:07.742Z,20.33
2018-03-23T00:28:39.362Z,20.32
2018-03-23T00:29:10.992Z,20.31
2018-03-23T00:29:42.618Z,20.29
2018-03-23T00:30:14.243Z,20.29
2018-03-23T00:30:45.871Z,20.30
2018-03-23T00:31:17.504Z,20.31
2018-03-23T00:31:49.131Z,20.30
2018-03-23T00:32:20.814Z,20.26
2018-03-23T00:32:52.438Z,20.31
2018-03-23T00:33:24.066Z,20.31
2018-03-23T00:33:55.690Z,20.30
2018-03-23T00:34:27.315Z,20.34
2018-03-23T00:34:58.941Z,20.30
2018-03-23T00:35:30.574Z,20.30
2018-03-23T00:36:02.202Z,20.25
2018-03-23T00:36:33.835Z,20.29
2018-03-23T00:37:05.458Z,20.25
2018-03-23T00:37:37.135Z,20.28
2018-03-23T00:38:08.775Z,20.26
2018-03-23T00:38:40.401Z,20.26
2018-03-23T00:39:12.030Z,20.22
2018-03-23T00:39:43.658Z,20.26
2018-03-23T00:40:15.282Z,20.22
2018-03-23T00:40:46.910Z,20.26
2018-03-23T00:41:18.534Z,20.28
2018-03-23T00:41:50.162Z,20.31
2018-03-23T00:42:21.785Z,20.30
2018-03-23T00:42:53.466Z,20.25
2018-03-23T00:43:25.090Z,20.25
2018-03-23T00:43:56.714Z,20.19
2018-03-23T00:44:28.349Z,20.25
2018-03-23T00:44:59.970Z,20.26
2018-03-23T00:45:31.598Z,20.29
2018-03-23T00:46:03.222Z,20.24
2018-03-23T00:46:34.845Z,20.23
2018-03-23T00:47:06.469Z,20.22
2018-03-23T00:47:38.098Z,20.22
2018-03-23T00:48:09.722Z,20.25
2018-03-23T00:48:41.346Z,20.23
2018-03-23T00:49:12.970Z,20.28
2018-03-23T00:49:44.590Z,20.29
2018-03-23T00:50:16.214Z,20.31
2018-03-23T00:50:47.838Z,20.32
2018-03-23T00:51:19.462Z,20.32
2018-03-23T00:51:51.091Z,20.30
2018-03-23T00:52:22.722Z,20.34
2018-03-23T00:52:54.346Z,20.34
2018-03-23T00:53:25.972Z,20.35
2018-03-23T00:53:57.594Z,20.36
2018-03-23T00:54:29.262Z,20.41
2018-03-23T00:55:00.898Z,20.41
2018-03-23T00:55:32.526Z,20.38
2018-03-23T00:56:04.150Z,20.33
2018-03-23T00:56:35.775Z,20.30
2018-03-23T00:57:07.398Z,20.35
2018-03-23T00:57:39.022Z,20.32
2018-03-23T00:58:10.657Z,20.31
2018-03-23T00:58:42.331Z,20.33
2018-03-23T00:59:13.956Z,20.32
2018-03-23T00:59:45.578Z,20.35
2018-03-23T01:00:17.207Z,20.35
2018-03-23T01:00:48.830Z,20.33
2018-03-23T01:01:20.453Z,20.33
2018-03-23T01:01:52.078Z,20.32
2018-03-23T01:02:23.702Z,20.32
2018-03-23T01:02:55.326Z,20.28
2018-03-23T01:03:26.949Z,20.33
2018-03-23T01:03:58.629Z,20.32
2018-03-23T01:04:30.263Z,20.32
2018-03-23T01:05:01.898Z,20.30
2018-03-23T01:05:33.523Z,20.28
2018-03-23T01:06:05.150Z,20.29
2018-03-23T01:06:36.779Z,20.30
2018-03-23T01:07:08.402Z,20.31
2018-03-23T01:07:40.030Z,20.30
2018-03-23T01:08:11.658Z,20.31
2018-03-23T01:08:43.326Z,20.27
2018-03-23T01:09:14.955Z,20.27
2018-03-23T01:09:46.586Z,20.26
2018-03-23T01:10:18.206Z,20.22
2018-03-23T01:10:49.849Z,20.29
2018-03-23T01:11:21.474Z,20.27
2018-03-23T01:11:53.097Z,20.29
2018-03-23T01:12:24.765Z,20.31
2018-03-23T01:12:56.398Z,20.30
2018-03-23T01:13:28.027Z,20.29
2018-03-23T01:13:59.653Z,20.24
2018-03-23T01:14:31.309Z,20.28
2018-03-23T01:15:02.935Z,20.27
2018-03-23T01:15:34.565Z,20.26
2018-03-23T01:16:06.206Z,20.24
2018-03-23T01:16:37.833Z,20.26
2018-03-23T01:17:09.459Z,20.19
2018-03-23T01:17:41.082Z,20.20
2018-03-23T01:18:12.716Z,20.19
2018-03-23T01:18:44.337Z,20.19
2018-03-23T01:19:15.967Z,20.26
2018-03-23T01:19:47.590Z,20.24
2018-03-23T01:20:19.222Z,20.25
2018-03-23T01:20:50.849Z,20.21
2018-03-23T01:21:22.477Z,20.18
2018-03-23T01:21:54.107Z,20.24
2018-03-23T01:22:25.729Z,20.20
2018-03-23T01:22:57.399Z,20.22
2018-03-23T01:23:29.023Z,20.21
2018-03-23T01:24:00.647Z,20.20
2018-03-23T01:24:33.310Z,20.20
2018-03-23T01:25:04.947Z,20.19
2018-03-23T01:25:36.570Z,20.20
2018-03-23T01:26:08.198Z,20.19
2018-03-23T01:26:39.823Z,20.25
2018-03-23T01:27:11.506Z,20.24
2018-03-23T01:27:43.138Z,20.20
2018-03-23T01:28:14.762Z,20.19
2018-03-23T01:28:46.391Z,20.21
2018-03-23T01:29:18.018Z,20.21
2018-03-23T01:29:49.650Z,20.20
2018-03-23T01:30:21.274Z,20.25
2018-03-23T01:30:52.898Z,20.22
2018-03-23T01:31:24.531Z,20.24
2018-03-23T01:31:56.167Z,20.21
2018-03-23T01:32:27.799Z,20.22
2018-03-23T01:32:59.422Z,20.22
2018-03-23T01:33:31.055Z,20.22
2018-03-23T01:34:02.687Z,20.20
2018-03-23T01:34:34.314Z,20.21
2018-03-23T01:35:05.942Z,20.28
2018-03-23T01:35:37.618Z,20.23
2018-03-23T01:36:09.247Z,20.23
2018-03-23T01:36:40.874Z,20.28
2018-03-23T01:37:12.498Z,20.24
2018-03-23T01:37:44.130Z,20.27
2018-03-23T01:38:15.758Z,20.26
2018-03-23T01:38:47.384Z,20.25
2018-03-23T01:39:19.015Z,20.22
2018-03-23T01:39:50.642Z,20.26
2018-03-23T01:40:22.274Z,20.24
2018-03-23T01:40:53.938Z,20.28
2018-03-23T01:41:25.570Z,20.29
2018-03-23T01:41:57.195Z,20.23
2018-03-23T01:42:28.819Z,20.28
2018-03-23T01:43:00.450Z,20.25
2018-03-23T01:43:32.118Z,20.22
2018-03-23T01:44:03.746Z,20.24
2018-03-23T01:44:35.372Z,20.23
2018-03-23T01:45:06.994Z,20.31
2018-03-23T01:45:38.622Z,20.31
2018-03-23T01:46:10.246Z,20.26
2018-03-23T01:46:41.875Z,20.25
2018-03-23T01:47:13.498Z,20.28
2018-03-23T01:47:45.124Z,20.31
2018-03-23T01:48:16.755Z,20.26
2018-03-23T01:48:48.410Z,20.28
2018-03-23T01:49:20.034Z,20.25
2018-03-23T01:49:51.710Z,20.26
2018-03-23T01:50:23.339Z,20.27
2018-03-23T01:50:54.962Z,20.26
2018-03-23T01:51:26.586Z,20.26
2018-03-23T01:51:58.210Z,20.28
2018-03-23T01:52:29.835Z,20.30
2018-03-23T01:53:01.474Z,20.33
2018-03-23T01:53:33.103Z,20.31
2018-03-23T01:54:04.726Z,20.29
2018-03-23T01:54:36.353Z,20.31
2018-03-23T01:55:08.023Z,20.32
2018-03-23T01:55:39.650Z,20.29
2018-03-23T01:56:11.280Z,20.30
2018-03-23T01:56:42.905Z,20.28
2018-03-23T01:57:14.537Z,20.31
2018-03-23T01:57:46.162Z,20.23
2018-03-23T01:58:17.791Z,20.30
2018-03-23T01:58:49.418Z,20.33
2018-03-23T01:59:21.087Z,20.32
2018-03-23T01:59:52.722Z,20.32
2018-03-23T02:00:24.349Z,20.34
2018-03-23T02:00:55.979Z,20.34
2018-03-23T02:01:27.645Z,20.41
2018-03-23T02:01:59.269Z,20.38
2018-03-23T02:02:30.894Z,20.37
2018-03-23T02:03:02.522Z,20.35
2018-03-23T02:03:34.150Z,20.35
2018-03-23T02:04:05.797Z,20.32
2018-03-23T02:04:37.422Z,20.32
2018-03-23T02:05:09.095Z,20.28
2018-03-23T02:05:40.726Z,20.31
2018-03-23T02:06:12.354Z,20.34
2018-03-23T02:06:44.011Z,20.37
2018-03-23T02:07:15.634Z,20.35
2018-03-23T02:07:47.306Z,20.33
2018-03-23T02:08:18.935Z,20.31
2018-03-23T02:08:50.558Z,20.29
2018-03-23T02:09:22.187Z,20.33
2018-03-23T02:09:53.821Z,20.32
2018-03-23T02:10:25.441Z,20.31
2018-03-23T02:10:57.070Z,20.31
2018-03-23T02:11:28.742Z,20.30
2018-03-23T02:12:00.368Z,20.35
2018-03-23T02:12:31.998Z,20.36
2018-03-23T02:13:03.622Z,20.33
2018-03-23T02:13:35.246Z,20.35
2018-03-23T02:14:06.874Z,20.31
2018-03-23T02:14:38.506Z,20.29
2018-03-23T02:15:10.126Z,20.32
2018-03-23T02:15:41.750Z,20.30
2018-03-23T02:16:13.414Z,20.34
2018-03-23T02:16:45.048Z,20.33
2018-03-23T02:17:16.673Z,20.36
2018-03-23T02:17:48.298Z,20.43
2018-03-23T02:18:19.932Z,20.41
2018-03-23T02:18:51.567Z,20.38
2018-03-23T02:19:23.190Z,20.36
2018-03-23T02:19:54.815Z,20.30
2018-03-23T02:20:26.447Z,20.24
2018-03-23T02:20:58.069Z,20.17
2018-03-23T02:21:29.743Z,20.18
2018-03-23T02:22:01.370Z,20.18
2018-03-23T02:22:32.999Z,20.17
2018-03-23T02:23:04.622Z,20.15
2018-03-23T02:23:36.251Z,20.20
2018-03-23T02:24:07.874Z,20.23
2018-03-23T02:24:39.497Z,20.20
2018-03-23T02:25:11.127Z,20.20
2018-03-23T02:25:42.798Z,20.23
2018-03-23T02:26:14.423Z,20.20
2018-03-23T02:26:46.046Z,20.20
2018-03-23T02:27:17.682Z,20.19
2018-03-23T02:27:49.306Z,20.19
2018-03-23T02:28:20.938Z,20.21
2018-03-23T02:28:52.567Z,20.18
2018-03-23T02:29:24.190Z,20.18
2018-03-23T02:29:55.821Z,20.20
2018-03-23T02:30:27.463Z,20.22
2018-03-23T02:30:59.154Z,20.23
2018-03-23T02:31:30.814Z,20.20
2018-03-23T02:32:02.452Z,20.22
2018-03-23T02:32:34.080Z,20.22
2018-03-23T02:33:05.711Z,20.21
2018-03-23T02:33:37.347Z,20.24
2018-03-23T02:34:08.978Z,20.21
2018-03-23T02:34:40.602Z,20.24
2018-03-23T02:35:12.227Z,20.21
2018-03-23T02:35:43.852Z,20.20
2018-03-23T02:36:15.530Z,20.18
2018-03-23T02:36:47.159Z,20.20
2018-03-23T02:37:18.786Z,20.21
2018-03-23T02:37:50.409Z,20.20
2018-03-23T02:38:22.039Z,20.17
2018-03-23T02:38:53.675Z,20.15
2018-03-23T02:39:25.321Z,20.15
2018-03-23T02:39:56.951Z,20.15
2018-03-23T02:40:28.589Z,20.15
2018-03-23T02:41:00.211Z,20.19
2018-03-23T02:41:31.834Z,20.17
2018-03-23T02:42:03.463Z,20.19
2018-03-23T02:42:35.091Z,20.15
2018-03-23T02:43:06.750Z,20.17
2018-03-23T02:43:38.374Z,20.17
2018-03-23T02:44:10.015Z,20.16
2018-03-23T02:44:41.645Z,20.16
2018-03-23T02:45:13.271Z,20.16
2018-03-23T02:45:44.938Z,20.17
2018-03-23T02:46:16.563Z,20.16
2018-03-23T02:46:48.190Z,20.16
2018-03-23T02:47:19.815Z,20.13
2018-03-23T02:47:51.442Z,20.09
2018-03-23T02:48:23.069Z,20.12
2018-03-23T02:48:54.700Z,20.15
2018-03-23T02:49:26.375Z,20.15
2018-03-23T02:49:58.010Z,20.16
2018-03-23T02:50:29.640Z,20.14
2018-03-23T02:51:01.263Z,20.11
2018-03-23T02:51:32.896Z,20.14
2018-03-23T02:52:04.519Z,20.16
2018-03-23T02:52:36.159Z,20.14
2018-03-23T02:53:07.807Z,20.15
2018-03-23T02:53:39.435Z,20.15
2018-03-23T02:54:11.063Z,20.18
2018-03-23T02:54:42.733Z,20.21
2018-03-23T02:55:14.362Z,20.16
2018-03-23T02:55:46.034Z,20.16
2018-03-23T02:56:17.664Z,20.18
2018-03-23T02:56:49.294Z,20.20
2018-03-23T02:57:20.918Z,20.23
2018-03-23T02:57:52.549Z,20.22
2018-03-23T02:58:24.174Z,20.24
2018-03-23T02:58:55.806Z,20.27
2018-03-23T02:59:27.436Z,20.30
2018-03-23T02:59:59.062Z,20.26
2018-03-23T03:00:30.729Z,20.23
2018-03-23T03:01:02.377Z,20.24
2018-03-23T03:01:34.011Z,20.25
2018-03-23T03:02:05.642Z,20.28
2018-03-23T03:02:37.266Z,20.28
2018-03-23T03:03:08.894Z,20.28
2018-03-23T03:03:40.518Z,20.29
2018-03-23T03:04:12.163Z,20.29
2018-03-23T03:04:43.789Z,20.30
2018-03-23T03:05:15.455Z,20.32
2018-03-23T03:05:47.086Z,20.32
2018-03-23T03:06:19.755Z,20.29
2018-03-23T03:06:51.379Z,20.32
2018-03-23T03:07:23.014Z,20.33
2018-03-23T03:07:54.638Z,20.30
2018-03-23T03:08:26.270Z,20.27
2018-03-23T03:08:57.898Z,20.28
2018-03-23T03:09:29.523Z,20.23
2018-03-23T03:10:01.195Z,20.29
2018-03-23T03:10:32.817Z,20.29
2018-03-23T03:11:04.446Z,20.30
2018-03-23T03:11:36.078Z,20.30
2018-03-23T03:12:07.706Z,20.25
2018-03-23T03:12:39.333Z,20.23
2018-03-23T03:13:10.967Z,20.24
2018-03-23T03:13:42.591Z,20.20
2018-03-23T03:14:14.222Z,20.23
2018-03-23T03:14:45.889Z,20.23
2018-03-23T03:15:17.514Z,20.20
2018-03-23T03:15:49.143Z,20.16
2018-03-23T03:16:20.779Z,20.14
2018-03-23T03:16:52.433Z,20.11
2018-03-23T03:17:24.062Z,20.10
2018-03-23T03:17:55.723Z,20.08
2018-03-23T03:18:27.365Z,20.08
2018-03-23T03:18:58.994Z,20.03
2018-03-23T03:19:30.661Z,20.04
2018-03-23T03:20:02.286Z,20.03
2018-03-23T03:20:33.954Z,19.98
2018-03-23T03:21:05.583Z,19.92
2018-03-23T03:21:37.254Z,19.92
2018-03-23T03:22:08.879Z,19.91
2018-03-23T03:22:40.501Z,19.90
2018-03-23T03:23:12.130Z,19.90
2018-03-23T03:23:43.761Z,19.88
2018-03-23T03:24:15.390Z,19.85
2018-03-23T03:24:47.058Z,19.84
2018-03-23T03:25:18.691Z,19.85
2018-03-23T03:25:50.322Z,19.86
2018-03-23T03:26:21.942Z,19.88
2018-03-23T03:26:53.713Z,19.89
2018-03-23T03:27:25.394Z,19.89
2018-03-23T03:27:57.018Z,19.92
2018-03-23T03:28:28.642Z,19.91
2018-03-23T03:29:00.275Z,19.90
2018-03-23T03:29:31.902Z,19.94
2018-03-23T03:30:03.528Z,19.98
2018-03-23T03:30:35.154Z,19.96
2018-03-23T03:31:06.787Z,19.96
2018-03-23T03:31:38.419Z,19.91
2018-03-23T03:32:10.051Z,19.96
2018-03-23T03:32:41.718Z,19.98
2018-03-23T03:33:13.342Z,19.99
2018-03-23T03:33:44.966Z,19.97
2018-03-23T03:34:16.619Z,20.00
2018-03-23T03:34:48.246Z,20.03
2018-03-23T03:35:19.866Z,20.06
2018-03-23T03:35:51.495Z,20.06
2018-03-23T03:36:23.119Z,20.09
2018-03-23T03:36:54.742Z,20.08
2018-03-23T03:37:26.414Z,20.10
2018-03-23T03:37:58.041Z,20.15
2018-03-23T03:38:29.666Z,20.13
2018-03-23T03:39:01.294Z,20.15
2018-03-23T03:39:32.951Z,20.14
2018-03-23T03:40:04.585Z,20.15
2018-03-23T03:40:36.210Z,20.15
2018-03-23T03:41:07.839Z,20.17
2018-03-23T03:41:39.462Z,20.22
2018-03-23T03:42:11.090Z,20.20
2018-03-23T03:42:42.777Z,20.20
2018-03-23T03:43:14.406Z,20.23
2018-03-23T03:43:46.031Z,20.24
2018-03-23T03:44:17.654Z,20.23
2018-03-23T03:44:49.284Z,20.26
2018-03-23T03:45:20.910Z,20.31
2018-03-23T03:45:52.539Z,20.33
2018-03-23T03:46:24.162Z,20.29
2018-03-23T03:46:55.792Z,20.36
2018-03-23T03:47:27.422Z,20.34
2018-03-23T03:47:59.046Z,20.34
2018-03-23T03:48:30.674Z,20.36
2018-03-23T03:49:02.314Z,20.36
2018-03-23T03:49:33.948Z,20.41
2018-03-23T03:50:05.570Z,20.36
2018-03-23T03:50:37.194Z,20.38
2018-03-23T03:51:08.826Z,20.34
2018-03-23T03:51:40.455Z,20.25
2018-03-23T03:52:12.086Z,20.36
2018-03-23T03:52:43.718Z,20.40
2018-03-23T03:53:15.390Z,20.40
2018-03-23T03:53:47.014Z,20.42
2018-03-23T03:54:18.693Z,20.40
2018-03-23T03:54:50.326Z,20.38
2018-03-23T03:55:21.949Z,20.40
2018-03-23T03:55:53.569Z,20.44
2018-03-23T03:56:25.194Z,20.46
2018-03-23T03:56:56.822Z,20.42
2018-03-23T03:57:28.458Z,20.40
2018-03-23T03:58:00.082Z,20.46
2018-03-23T03:58:31.709Z,20.51
2018-03-23T03:59:03.331Z,20.50
2018-03-23T03:59:35.002Z,20.45
2018-03-23T04:00:06.670Z,20.47
2018-03-23T04:00:38.298Z,20.46
2018-03-23T04:01:09.922Z,20.46
2018-03-23T04:01:41.578Z,20.45
2018-03-23T04:02:13.203Z,20.47
2018-03-23T04:02:44.830Z,20.48
2018-03-23T04:03:16.450Z,20.45
2018-03-23T04:03:48.074Z,20.46
2018-03-23T04:04:19.697Z,20.50
2018-03-23T04:04:51.323Z,20.52
2018-03-23T04:05:22.959Z,20.53
2018-03-23T04:05:54.590Z,20.50
2018-03-23T04:06:26.214Z,20.52
2018-03-23T04:06:57.842Z,20.51
2018-03-23T04:07:29.463Z,20.54
2018-03-23T04:08:01.091Z,20.51
2018-03-23T04:08:32.717Z,20.52
2018-03-23T04:09:04.342Z,20.51
2018-03-23T04:09:35.966Z,20.51
2018-03-23T04:10:07.595Z,20.50
2018-03-23T04:10:39.218Z,20.46
2018-03-23T04:11:10.847Z,20.47
2018-03-23T04:11:42.513Z,20.49
2018-03-23T04:12:14.147Z,20.50
2018-03-23T04:12:45.774Z,20.49
2018-03-23T04:13:17.402Z,20.49
2018-03-23T04:13:49.070Z,20.49
2018-03-23T04:14:20.699Z,20.47
2018-03-23T04:14:52.331Z,20.49
2018-03-23T04:15:23.977Z,20.46
2018-03-23T04:15:55.602Z,20.44
2018-03-23T04:16:27.227Z,20.47
2018-03-23T04:16:58.897Z,20.43
2018-03-23T04:17:30.526Z,20.47
2018-03-23T04:18:02.154Z,20.47
2018-03-23T04:18:33.781Z,20.46
2018-03-23T04:19:05.405Z,20.44
2018-03-23T04:19:37.062Z,20.46
2018-03-23T04:20:08.693Z,20.49
2018-03-23T04:20:40.318Z,20.52
2018-03-23T04:21:11.938Z,20.49
2018-03-23T04:21:43.561Z,20.47
2018-03-23T04:22:15.229Z,20.47
2018-03-23T04:22:46.858Z,20.47
2018-03-23T04:23:18.490Z,20.47
2018-03-23T04:23:50.114Z,20.44
2018-03-23T04:24:21.736Z,20.40
2018-03-23T04:24:53.366Z,20.42
2018-03-23T04:25:24.990Z,20.42
2018-03-23T04:25:56.618Z,20.48
2018-03-23T04:26:28.242Z,20.50
2018-03-23T04:26:59.865Z,20.55
2018-03-23T04:27:31.498Z,20.56
2018-03-23T04:28:03.127Z,20.57
2018-03-23T04:28:34.749Z,20.53
2018-03-23T04:29:06.376Z,20.52
2018-03-23T04:29:38.017Z,20.55
2018-03-23T04:30:09.638Z,20.55
2018-03-23T04:30:41.258Z,20.59
2018-03-23T04:31:12.882Z,20.58
2018-03-23T04:31:44.506Z,20.56
2018-03-23T04:32:16.130Z,20.53
2018-03-23T04:32:47.807Z,20.52
2018-03-23T04:33:19.433Z,20.53
2018-03-23T04:33:51.054Z,20.51
2018-03-23T04:34:22.686Z,20.49
2018-03-23T04:34:54.314Z,20.45
2018-03-23T04:35:25.942Z,20.49
2018-03-23T04:35:57.574Z,20.46
2018-03-23T04:36:29.202Z,20.48
2018-03-23T04:37:00.826Z,20.49
2018-03-23T04:37:32.458Z,20.53
2018-03-23T04:38:04.127Z,20.57
2018-03-23T04:38:35.758Z,20.51
2018-03-23T04:39:07.430Z,20.59
2018-03-23T04:39:39.083Z,20.55
2018-03-23T04:40:10.711Z,20.53
2018-03-23T04:40:42.334Z,20.52
2018-03-23T04:41:13.962Z,20.52
2018-03-23T04:41:45.594Z,20.50
2018-03-23T04:42:17.218Z,20.54
2018-03-23T04:42:48.846Z,20.53
2018-03-23T04:43:20.478Z,20.51
2018-03-23T04:43:52.106Z,20.50
2018-03-23T04:44:23.769Z,20.47
2018-03-23T04:44:55.394Z,20.48
2018-03-23T04:45:27.018Z,20.48
2018-03-23T04:45:58.646Z,20.47
2018-03-23T04:46:30.277Z,20.43
2018-03-23T04:47:01.905Z,20.44
2018-03-23T04:47:33.590Z,20.44
2018-03-23T04:48:05.213Z,20.43
2018-03-23T04:48:36.834Z,20.42
2018-03-23T04:49:08.461Z,20.40
2018-03-23T04:49:40.102Z,20.42
2018-03-23T04:50:11.754Z,20.43
2018-03-23T04:50:43.382Z,20.44
2018-03-23T04:51:15.014Z,20.42
2018-03-23T04:51:46.641Z,20.41
2018-03-23T04:52:18.271Z,20.43
2018-03-23T04:52:49.942Z,20.42
2018-03-23T04:53:21.566Z,20.43
2018-03-23T04:53:53.194Z,20.45
2018-03-23T04:54:24.822Z,20.48
2018-03-23T04:54:56.454Z,20.51
2018-03-23T04:55:28.078Z,20.56
2018-03-23T04:55:59.702Z,20.53
2018-03-23T04:56:31.322Z,20.49
2018-03-23T04:57:02.960Z,20.52
2018-03-23T04:57:34.586Z,20.53
2018-03-23T04:58:06.266Z,20.51
2018-03-23T04:58:37.901Z,20.51
2018-03-23T04:59:09.539Z,20.53
2018-03-23T04:59:41.186Z,20.53
2018-03-23T05:00:12.814Z,20.44
2018-03-23T05:00:44.438Z,20.53
2018-03-23T05:01:16.095Z,20.54
2018-03-23T05:01:47.755Z,20.53
2018-03-23T05:02:19.382Z,20.54
2018-03-23T05:02:51.014Z,20.51
2018-03-23T05:03:22.707Z,20.51
2018-03-23T05:03:54.330Z,20.53
2018-03-23T05:04:25.980Z,20.44
2018-03-23T05:04:58.503Z,20.52
2018-03-23T05:05:30.255Z,20.52
2018-03-23T05:06:01.887Z,20.48
2018-03-23T05:06:34.194Z,20.47
2018-03-23T05:07:05.826Z,20.47
2018-03-23T05:07:37.530Z,20.41
2018-03-23T05:08:09.865Z,20.49
2018-03-23T05:08:41.538Z,20.44
2018-03-23T05:09:13.165Z,20.43
2018-03-23T05:09:44.799Z,20.39
2018-03-23T05:10:16.450Z,20.36
2018-03-23T05:10:48.079Z,20.35
2018-03-23T05:11:19.703Z,20.33
2018-03-23T05:11:51.325Z,20.27
2018-03-23T05:12:22.946Z,20.25
2018-03-23T05:12:54.575Z,20.24
2018-03-23T05:13:26.203Z,20.21
2018-03-23T05:13:57.870Z,20.19
2018-03-23T05:14:29.494Z,20.19
2018-03-23T05:15:01.118Z,20.22
2018-03-23T05:15:32.743Z,20.17
2018-03-23T05:16:04.371Z,20.17
2018-03-23T05:16:36.000Z,20.16
2018-03-23T05:17:07.635Z,20.17
2018-03-23T05:17:39.263Z,20.16
2018-03-23T05:18:10.890Z,20.14
2018-03-23T05:18:42.514Z,20.11
2018-03-23T05:19:14.137Z,20.09
2018-03-23T05:19:45.766Z,20.09
2018-03-23T05:20:17.402Z,20.05
2018-03-23T05:20:49.026Z,20.04
2018-03-23T05:21:20.658Z,20.02
2018-03-23T05:21:52.294Z,20.04
2018-03-23T05:22:23.923Z,20.04
2018-03-23T05:22:55.610Z,20.05
2018-03-23T05:23:27.234Z,20.08
2018-03-23T05:23:58.865Z,20.12
2018-03-23T05:24:30.670Z,20.15
2018-03-23T05:25:02.294Z,20.16
2018-03-23T05:25:33.918Z,20.17
2018-03-23T05:26:05.542Z,20.19
2018-03-23T05:26:37.166Z,20.00
2018-03-23T05:27:08.798Z,20.21
2018-03-23T05:27:40.430Z,20.22
2018-03-23T05:28:12.058Z,20.21
2018-03-23T05:28:43.682Z,20.21
2018-03-23T05:29:15.315Z,20.25
2018-03-23T05:29:47.078Z,20.23
2018-03-23T05:30:18.703Z,20.24
2018-03-23T05:30:50.331Z,20.25
2018-03-23T05:31:22.374Z,20.24
2018-03-23T05:31:54.029Z,20.16
2018-03-23T05:32:25.772Z,20.27
2018-03-23T05:32:57.455Z,20.26
2018-03-23T05:33:29.150Z,20.30
2018-03-23T05:34:00.783Z,20.29
2018-03-23T05:34:32.410Z,20.32
2018-03-23T05:35:04.038Z,20.36
2018-03-23T05:35:35.671Z,20.37
2018-03-23T05:36:07.417Z,20.35
2018-03-23T05:36:39.234Z,20.38
2018-03-23T05:37:10.866Z,20.39
2018-03-23T05:37:42.504Z,20.40
2018-03-23T05:38:14.126Z,20.42
2018-03-23T05:38:45.750Z,20.42
2018-03-23T05:39:17.426Z,20.45
2018-03-23T05:39:49.062Z,20.44
2018-03-23T05:40:20.688Z,20.44
2018-03-23T05:40:52.329Z,20.45
2018-03-23T05:41:23.954Z,20.50
2018-03-23T05:41:55.574Z,20.47
2018-03-23T05:42:27.193Z,20.49
2018-03-23T05:42:58.814Z,20.48
2018-03-23T05:43:30.443Z,20.48
2018-03-23T05:44:02.066Z,20.48
2018-03-23T05:44:33.690Z,20.52
2018-03-23T05:45:05.315Z,20.51
2018-03-23T05:45:36.937Z,20.57
2018-03-23T05:46:08.604Z,20.53
2018-03-23T05:46:40.241Z,20.58
2018-03-23T05:47:11.876Z,20.60
2018-03-23T05:47:43.510Z,20.62
2018-03-23T05:48:15.137Z,20.61
2018-03-23T05:48:46.777Z,20.63
2018-03-23T05:49:18.402Z,20.64
2018-03-23T05:49:50.086Z,20.63
2018-03-23T05:50:21.710Z,20.62
2018-03-23T05:50:53.350Z,20.64
2018-03-23T05:51:25.022Z,20.61
2018-03-23T05:51:56.650Z,20.62
2018-03-23T05:52:28.274Z,20.61
2018-03-23T05:52:59.899Z,20.60
2018-03-23T05:53:31.527Z,20.61
2018-03-23T05:54:03.153Z,20.64
2018-03-23T05:54:34.778Z,20.60
2018-03-23T05:55:06.406Z,20.62
2018-03-23T05:55:38.128Z,20.66
2018-03-23T05:56:09.778Z,20.66
2018-03-23T05:56:41.410Z,20.61
2018-03-23T05:57:13.038Z,20.60
2018-03-23T05:57:44.662Z,20.65
2018-03-23T05:58:16.349Z,20.65
2018-03-23T05:58:47.977Z,20.67
2018-03-23T05:59:19.598Z,20.64
2018-03-23T05:59:51.346Z,20.63
2018-03-23T06:00:23.052Z,20.64
2018-03-23T06:00:54.683Z,20.61
2018-03-23T06:01:26.321Z,20.60
2018-03-23T06:01:58.064Z,20.65
2018-03-23T06:02:29.689Z,20.62
2018-03-23T06:03:01.322Z,20.61
2018-03-23T06:03:32.955Z,20.62
2018-03-23T06:04:04.750Z,20.68
2018-03-23T06:04:36.391Z,20.70
2018-03-23T06:05:08.050Z,20.67
2018-03-23T06:05:39.677Z,20.69
2018-03-23T06:06:11.338Z,20.66
2018-03-23T06:06:42.966Z,20.69
2018-03-23T06:07:14.641Z,20.72
2018-03-23T06:07:46.266Z,20.72
2018-03-23T06:08:17.890Z,20.68
2018-03-23T06:08:49.518Z,20.70
2018-03-23T06:09:21.149Z,20.68
2018-03-23T06:09:52.779Z,20.70
2018-03-23T06:10:24.407Z,20.70
2018-03-23T06:10:56.039Z,20.69
2018-03-23T06:11:27.738Z,20.64
2018-03-23T06:11:59.361Z,20.64
2018-03-23T06:12:31.038Z,20.62
2018-03-23T06:13:02.663Z,20.61
2018-03-23T06:13:34.287Z,20.65
2018-03-23T06:14:05.918Z,20.65
2018-03-23T06:14:37.543Z,20.61
2018-03-23T06:15:09.170Z,20.56
2018-03-23T06:15:40.794Z,20.54
2018-03-23T06:16:12.418Z,20.58
2018-03-23T06:16:44.042Z,20.53
2018-03-23T06:17:15.671Z,20.57
2018-03-23T06:17:47.351Z,20.56
2018-03-23T06:18:18.979Z,20.59
2018-03-23T06:18:50.604Z,20.58
2018-03-23T06:19:22.234Z,20.57
2018-03-23T06:19:53.866Z,20.56
2018-03-23T06:20:25.493Z,20.58
2018-03-23T06:20:57.121Z,20.56
2018-03-23T06:21:28.751Z,20.57
2018-03-23T06:22:00.374Z,20.57
2018-03-23T06:22:32.022Z,20.56
2018-03-23T06:23:03.692Z,20.56
2018-03-23T06:23:35.322Z,20.58
2018-03-23T06:24:06.950Z,20.54
2018-03-23T06:24:38.574Z,20.53
2018-03-23T06:25:10.198Z,20.54
2018-03-23T06:25:41.822Z,20.54
2018-03-23T06:26:13.446Z,20.55
2018-03-23T06:26:45.127Z,20.54
2018-03-23T06:27:16.758Z,20.57
2018-03-23T06:27:48.393Z,20.57
2018-03-23T06:28:20.018Z,20.55
2018-03-23T06:28:51.650Z,20.55
2018-03-23T06:29:23.274Z,20.57
2018-03-23T06:29:54.905Z,20.59
2018-03-23T06:30:26.540Z,20.56
2018-03-23T06:30:58.162Z,20.55
2018-03-23T06:31:29.791Z,20.56
2018-03-23T06:32:01.466Z,20.56
2018-03-23T06:32:33.209Z,20.54
2018-03-23T06:33:04.856Z,20.59
2018-03-23T06:33:36.553Z,20.61
2018-03-23T06:34:08.142Z,20.58
2018-03-23T06:34:39.766Z,20.55
2018-03-23T06:35:11.395Z,20.59
2018-03-23T06:35:43.038Z,20.62
2018-03-23T06:36:14.706Z,20.60
2018-03-23T06:36:46.338Z,20.64
2018-03-23T06:37:18.018Z,20.63
2018-03-23T06:37:49.641Z,20.60
2018-03-23T06:38:21.270Z,20.57
2018-03-23T06:38:52.897Z,20.54
2018-03-23T06:39:24.518Z,20.53
2018-03-23T06:39:56.146Z,20.53
2018-03-23T06:40:27.779Z,20.54
2018-03-23T06:40:59.406Z,20.54
2018-03-23T06:41:31.038Z,20.54
2018-03-23T06:42:02.669Z,20.53
2018-03-23T06:42:34.346Z,20.55
2018-03-23T06:43:05.974Z,20.54
2018-03-23T06:43:37.604Z,20.55
2018-03-23T06:44:09.245Z,20.57
2018-03-23T06:44:40.874Z,20.56
2018-03-23T06:45:12.502Z,20.59
2018-03-23T06:45:44.158Z,20.58
2018-03-23T06:46:15.816Z,20.58
2018-03-23T06:46:47.467Z,20.52
2018-03-23T06:47:19.107Z,20.53